MMPN/UPN METAR and TAF weather

Enter ICAO airport designator
Station Type Date Time Source
MMPN METAR 2019/08/24 21:48 UTC NOAA

MMPN 242148Z 33006KT 10SM BKN030TCU BKN260 24/18 A3015 RMK 8/201 HZY


Station Type Date Time Source
MMPN Decoded METAR 2019/08/24 21:48 UTC NOAA

Station name not available
Aug 24, 2019 - 05:48 PM EDT / 2019.08.24 2148 UTC
Wind: from the NNW (330 degrees) at 7 MPH (6 KT):0
Visibility: 10 mile(s):0
Sky conditions: mostly cloudy
Weather: Towering cumulus clouds observed
Temperature: 75 F (24 C)
Dew Point: 64 F (18 C)
Relative Humidity: 69%
Pressure (altimeter): 30.15 in. Hg (1020 hPa)
ob: MMPN 242148Z 33006KT 10SM BKN030TCU BKN260 24/18 A3015 RMK 8/201 HZY
cycle: 22

Station Type Date Time Source
MMPN TAF 2019/08/24 18:03 UTC NOAA

TAF MMPN 241700Z 2418/2518 19010KT P6SM SCT025 BKN080 BKN220
BECMG 2420/2421 P6SM VC RA BKN020CB
TEMPO 2422/2502 3SM TSRA BKN010 OVC020CB
FM250400 00000KT 6SM HZ BKN015 BKN070 OVC250
FM251000 00000KT 3SM BR HZ SCT015 BKN250
TEMPO 2510/2514 1SM BR HZ
FM251600 18006KT P6SM SCT250

Example: see airport list